Time;durP1;ratioP1;P1;durP2;ratioP2;P2;SDS_P1;SDS_P2;PMS_P1;PMS_P2;Temp;Humidity;BMP_temperature;BMP_pressure;BME280_temperature;BME280_humidity;BME280_pressure;Samples;Min_cycle;Max_cycle;Signal;HPM_P1;HPM_P2
2024/03/31 00:03:30;;;;;;;15.90;10.13;;;9.40;99.90;;;;;;12473424;28;20103;-80
2024/03/31 00:09:31;;;;;;;14.35;10.32;;;9.40;99.90;;;;;;12483663;28;20056;-79
2024/03/31 00:15:33;;;;;;;31.27;19.98;;;9.50;99.90;;;;;;12490647;28;20072;-79
2024/03/31 00:21:34;;;;;;;19.88;12.63;;;9.40;99.90;;;;;;12495997;28;20068;-79
2024/03/31 00:27:35;;;;;;;22.13;14.55;;;9.40;99.90;;;;;;12508037;28;20124;-79
2024/03/31 00:33:36;;;;;;;27.55;16.48;;;9.30;99.90;;;;;;12479311;28;20026;-78
2024/03/31 00:39:38;;;;;;;30.80;18.25;;;9.20;99.90;;;;;;12478860;28;20045;-78
2024/03/31 00:45:40;;;;;;;25.95;17.25;;;9.10;99.90;;;;;;12470842;28;20058;-79
2024/03/31 00:51:41;;;;;;;25.58;16.20;;;9.10;99.90;;;;;;12475936;28;20050;-79
2024/03/31 00:57:42;;;;;;;33.13;20.30;;;9.00;99.90;;;;;;12487300;28;20042;-81
2024/03/31 01:03:43;;;;;;;28.20;19.52;;;9.20;99.90;;;;;;12467392;28;20046;-81
2024/03/31 01:09:44;;;;;;;38.85;23.60;;;9.10;99.90;;;;;;12491393;28;20050;-79
2024/03/31 01:15:45;;;;;;;28.63;19.50;;;9.10;99.90;;;;;;12478498;28;20050;-81
2024/03/31 01:21:46;;;;;;;30.92;18.27;;;9.10;99.90;;;;;;12484934;28;20057;-80
2024/03/31 01:27:47;;;;;;;24.55;17.08;;;9.00;99.90;;;;;;12489512;28;20049;-81
2024/03/31 01:33:50;;;;;;;30.17;16.63;;;8.90;99.90;;;;;;12504993;28;20042;-79
2024/03/31 01:39:51;;;;;;;26.27;17.17;;;9.00;99.90;;;;;;12480059;28;20273;-82
2024/03/31 01:45:52;;;;;;;26.67;17.88;;;9.00;99.90;;;;;;12434716;28;22044;-81
2024/03/31 01:51:53;;;;;;;25.77;16.00;;;9.00;99.90;;;;;;12442658;28;20057;-82
2024/03/31 01:57:54;;;;;;;29.33;18.25;;;9.10;99.90;;;;;;12451085;28;20135;-81
2024/03/31 02:03:55;;;;;;;24.85;15.43;;;9.20;99.90;;;;;;12438519;28;20054;-81
2024/03/31 02:09:56;;;;;;;27.52;16.42;;;9.30;99.90;;;;;;12429052;28;20403;-81
2024/03/31 02:15:57;;;;;;;18.88;13.82;;;9.00;99.90;;;;;;12418934;28;20041;-82
2024/03/31 02:21:58;;;;;;;22.75;16.20;;;9.00;99.90;;;;;;12423847;28;20057;-81
2024/03/31 02:27:59;;;;;;;24.02;16.35;;;8.80;99.90;;;;;;12445936;28;20058;-81
2024/03/31 02:34:00;;;;;;;27.40;17.85;;;8.80;99.90;;;;;;12444668;28;20054;-81
2024/03/31 02:40:01;;;;;;;26.85;16.67;;;8.70;99.90;;;;;;12444274;28;20058;-81
2024/03/31 02:46:02;;;;;;;25.98;16.63;;;8.90;99.90;;;;;;12439719;28;20068;-81
2024/03/31 02:52:03;;;;;;;27.10;17.67;;;8.80;99.90;;;;;;12448832;28;20600;-81
2024/03/31 02:58:04;;;;;;;31.75;18.23;;;8.80;99.90;;;;;;12460147;28;20639;-80
2024/03/31 03:04:05;;;;;;;31.10;19.45;;;8.70;99.90;;;;;;12432733;28;20058;-80
2024/03/31 03:10:07;;;;;;;30.25;17.58;;;8.80;99.90;;;;;;12450435;28;20096;-80
2024/03/31 03:16:07;;;;;;;26.67;17.45;;;8.80;99.90;;;;;;12446268;28;20426;-80
2024/03/31 03:22:09;;;;;;;25.58;17.38;;;8.90;99.90;;;;;;12441430;28;20089;-80
2024/03/31 03:28:10;;;;;;;22.25;16.27;;;8.90;99.90;;;;;;12445813;28;21506;-79
2024/03/31 03:34:12;;;;;;;24.33;16.98;;;8.90;99.90;;;;;;12451717;28;20508;-80
2024/03/31 03:40:13;;;;;;;21.33;16.17;;;8.60;99.90;;;;;;12438534;28;20069;-80
2024/03/31 03:46:14;;;;;;;25.30;16.83;;;8.70;99.90;;;;;;12425965;28;20069;-80
2024/03/31 03:52:15;;;;;;;23.20;16.60;;;8.80;99.90;;;;;;12445675;28;20103;-80
2024/03/31 03:58:16;;;;;;;20.70;14.68;;;8.80;99.90;;;;;;12441934;28;20046;-80
2024/03/31 04:04:16;;;;;;;23.00;14.82;;;8.90;99.90;;;;;;12434288;28;20056;-80
2024/03/31 04:10:17;;;;;;;21.42;15.32;;;8.90;99.90;;;;;;12439213;28;20081;-81
2024/03/31 04:16:18;;;;;;;19.10;14.45;;;8.80;99.90;;;;;;12446053;28;20058;-81
2024/03/31 04:22:19;;;;;;;22.50;15.30;;;8.80;99.90;;;;;;12422336;28;20164;-80
2024/03/31 04:28:20;;;;;;;21.67;14.98;;;8.80;99.90;;;;;;12432227;28;20049;-81
2024/03/31 04:34:22;;;;;;;22.08;15.35;;;8.80;99.90;;;;;;12441165;28;20090;-81
2024/03/31 04:40:22;;;;;;;23.45;15.60;;;9.00;99.90;;;;;;12439298;28;20484;-81
2024/03/31 04:46:23;;;;;;;21.38;15.93;;;9.00;99.90;;;;;;12416256;28;20057;-81
2024/03/31 04:52:24;;;;;;;20.65;15.27;;;8.90;99.90;;;;;;12424090;28;20060;-81
2024/03/31 04:58:25;;;;;;;20.58;14.25;;;8.90;99.90;;;;;;12441655;28;20426;-81
2024/03/31 05:04:26;;;;;;;22.30;15.23;;;9.00;99.90;;;;;;12428776;28;20049;-80
2024/03/31 05:10:27;;;;;;;23.33;15.88;;;8.80;99.90;;;;;;12462642;28;20151;-83
2024/03/31 05:16:27;;;;;;;24.55;17.30;;;8.70;99.90;;;;;;12505418;28;20057;-83
2024/03/31 05:22:28;;;;;;;23.48;17.88;;;8.60;99.90;;;;;;12505228;28;20053;-82
2024/03/31 05:28:29;;;;;;;24.10;17.52;;;8.70;99.90;;;;;;12506308;28;20049;-82
2024/03/31 05:34:30;;;;;;;22.67;16.92;;;8.80;99.90;;;;;;12495178;28;20060;-82
2024/03/31 05:40:31;;;;;;;26.67;19.00;;;8.90;99.90;;;;;;12500168;28;20104;-80
2024/03/31 05:46:33;;;;;;;22.35;17.75;;;9.00;99.90;;;;;;12479398;28;20088;-80
2024/03/31 05:52:34;;;;;;;23.33;17.48;;;9.00;99.90;;;;;;12494351;28;20085;-81
2024/03/31 05:58:35;;;;;;;20.63;17.02;;;9.10;99.90;;;;;;12499140;28;20088;-84
2024/03/31 06:04:37;;;;;;;22.25;16.65;;;9.20;99.90;;;;;;12489880;28;20050;-80
2024/03/31 06:10:38;;;;;;;21.00;17.08;;;9.20;99.90;;;;;;12487119;28;20498;-81
2024/03/31 06:16:39;;;;;;;20.52;17.27;;;9.30;99.90;;;;;;12473078;28;20072;-81
2024/03/31 06:22:41;;;;;;;23.63;17.60;;;9.30;99.90;;;;;;12476909;28;20119;-79
2024/03/31 06:28:43;;;;;;;21.77;17.65;;;9.40;99.90;;;;;;12479316;28;20054;-79
2024/03/31 06:34:45;;;;;;;23.30;17.80;;;9.30;99.90;;;;;;12500137;28;20494;-81
2024/03/31 06:40:46;;;;;;;21.10;16.55;;;9.20;99.90;;;;;;12499032;28;20042;-83
2024/03/31 06:46:47;;;;;;;23.02;18.15;;;9.20;99.90;;;;;;12478893;28;20058;-79
2024/03/31 06:52:48;;;;;;;25.35;20.67;;;9.10;99.90;;;;;;12489907;28;20042;-79
2024/03/31 06:58:49;;;;;;;29.80;22.20;;;9.10;99.90;;;;;;12475250;28;20041;-81
2024/03/31 07:04:50;;;;;;;25.02;20.77;;;9.00;99.90;;;;;;12487613;28;20044;-82
2024/03/31 07:10:50;;;;;;;24.27;20.65;;;9.10;99.90;;;;;;12491573;28;20056;-82
2024/03/31 07:16:51;;;;;;;26.33;21.02;;;9.20;99.90;;;;;;12502439;28;20046;-82
2024/03/31 07:22:52;;;;;;;30.42;25.00;;;9.30;99.90;;;;;;12509554;28;20045;-82
2024/03/31 07:28:54;;;;;;;25.92;22.48;;;9.20;99.90;;;;;;12474830;28;20076;-81
2024/03/31 07:34:55;;;;;;;27.20;22.27;;;9.10;99.90;;;;;;12443581;28;20041;-81
2024/03/31 07:40:56;;;;;;;28.52;25.23;;;9.00;99.90;;;;;;12445569;28;20077;-81
2024/03/31 07:46:59;;;;;;;35.30;26.85;;;8.90;99.90;;;;;;12424018;28;20064;-82
2024/03/31 07:53:00;;;;;;;35.65;26.67;;;9.00;99.90;;;;;;12459844;28;20060;-79
2024/03/31 07:59:01;;;;;;;31.98;27.05;;;9.10;99.90;;;;;;12480860;28;20056;-83
2024/03/31 08:05:02;;;;;;;34.20;29.25;;;9.20;99.90;;;;;;12447409;28;20405;-83
2024/03/31 08:11:03;;;;;;;33.92;26.90;;;9.40;99.90;;;;;;12439511;28;20057;-82
2024/03/31 08:17:04;;;;;;;35.58;27.30;;;9.50;99.90;;;;;;12418564;28;20047;-83
2024/03/31 08:23:05;;;;;;;34.97;26.83;;;9.50;99.90;;;;;;12442394;28;20062;-83
2024/03/31 08:29:06;;;;;;;39.20;28.83;;;9.50;99.90;;;;;;12417784;28;20458;-83
2024/03/31 08:35:07;;;;;;;42.97;33.90;;;9.60;99.90;;;;;;12442262;28;20046;-83
2024/03/31 08:41:09;;;;;;;39.22;31.02;;;9.70;99.90;;;;;;12431461;28;20057;-82
2024/03/31 08:47:17;;;;;;;43.72;32.97;;;10.00;99.90;;;;;;12445652;28;20429;-82
2024/03/31 08:53:19;;;;;;;35.58;27.45;;;10.20;99.90;;;;;;12443171;28;20041;-82
2024/03/31 08:59:20;;;;;;;32.70;28.20;;;10.30;99.90;;;;;;12433975;28;20053;-82
2024/03/31 09:05:21;;;;;;;35.08;27.63;;;10.30;99.90;;;;;;12499028;28;20044;-81
2024/03/31 09:11:22;;;;;;;40.72;30.60;;;10.30;99.90;;;;;;12480013;28;20046;-81
2024/03/31 09:17:23;;;;;;;38.33;28.13;;;10.50;99.90;;;;;;12501061;28;20041;-86
2024/03/31 09:23:24;;;;;;;30.20;23.02;;;10.40;99.90;;;;;;12503306;28;20045;-84
2024/03/31 09:29:26;;;;;;;30.67;23.83;;;10.50;99.90;;;;;;12492377;28;20072;-85
2024/03/31 09:35:27;;;;;;;24.67;22.08;;;10.90;99.90;;;;;;12507220;28;20029;-83
2024/03/31 09:41:28;;;;;;;28.00;23.05;;;11.20;99.90;;;;;;12505815;28;20034;-84
2024/03/31 09:47:48;;;;;;;25.92;21.10;;;11.20;99.90;;;;;;12509153;28;20072;-84
2024/03/31 09:54:11;;;;;;;23.17;20.67;;;11.20;99.90;;;;;;12478864;28;20053;-85
2024/03/31 10:00:15;;;;;;;30.23;25.27;;;11.10;99.90;;;;;;12459458;28;20532;-86
2024/03/31 10:06:17;;;;;;;32.60;27.23;;;11.20;99.90;;;;;;12439904;28;20046;-85
2024/03/31 10:12:19;;;;;;;29.52;25.63;;;11.10;99.90;;;;;;12456746;28;20061;-84
2024/03/31 10:18:23;;;;;;;32.35;27.98;;;11.20;99.90;;;;;;12444100;28;20049;-84
2024/03/31 10:24:24;;;;;;;52.15;47.75;;;11.60;99.90;;;;;;12427359;28;20514;-84
2024/03/31 10:30:27;;;;;;;50.25;45.90;;;12.30;99.90;;;;;;12445910;28;20058;-84
2024/03/31 10:36:31;;;;;;;41.97;38.22;;;12.60;99.90;;;;;;12434795;28;20050;-82
2024/03/31 10:42:33;;;;;;;40.67;37.10;;;13.00;99.90;;;;;;12423484;28;20072;-84
2024/03/31 10:48:33;;;;;;;36.17;32.50;;;12.90;99.90;;;;;;12422823;28;20065;-83
2024/03/31 10:54:36;;;;;;;23.88;20.75;;;12.90;99.90;;;;;;12410300;28;20061;-82
2024/03/31 11:00:37;;;;;;;25.42;22.75;;;12.90;99.90;;;;;;12443262;28;20046;-82
2024/03/31 11:06:39;;;;;;;28.90;25.90;;;13.00;99.90;;;;;;12491830;28;20042;-80
2024/03/31 11:12:44;;;;;;;27.77;21.88;;;13.20;99.90;;;;;;12498254;28;20129;-81
2024/03/31 11:18:51;;;;;;;25.77;17.38;;;12.70;99.90;;;;;;12509852;28;20105;-82
2024/03/31 11:24:52;;;;;;;22.88;16.98;;;12.90;99.90;;;;;;12448666;28;20054;-82
2024/03/31 11:30:53;;;;;;;24.65;17.85;;;13.20;99.90;;;;;;12438970;28;20490;-82
2024/03/31 11:36:54;;;;;;;17.15;13.27;;;13.70;99.90;;;;;;12417357;28;20058;-82
2024/03/31 11:42:55;;;;;;;21.38;14.13;;;13.80;99.90;;;;;;12419709;28;20053;-82
2024/03/31 11:48:59;;;;;;;21.73;14.93;;;14.00;99.90;;;;;;12436782;28;20057;-82
2024/03/31 11:55:00;;;;;;;16.95;12.38;;;14.60;99.90;;;;;;12421094;28;20050;-82
2024/03/31 12:01:01;;;;;;;19.98;13.50;;;14.50;99.90;;;;;;12430987;28;20125;-82
2024/03/31 12:07:02;;;;;;;21.55;12.75;;;14.70;99.90;;;;;;12434939;28;20061;-82
2024/03/31 12:13:04;;;;;;;19.27;12.90;;;14.70;99.90;;;;;;12427176;28;20494;-84
2024/03/31 12:19:06;;;;;;;19.42;12.43;;;14.80;99.90;;;;;;12439537;28;20050;-84
2024/03/31 12:25:10;;;;;;;14.50;9.38;;;15.10;99.90;;;;;;12419522;28;20069;-84
2024/03/31 12:31:13;;;;;;;15.40;8.40;;;15.20;99.90;;;;;;12431236;28;20513;-84
2024/03/31 12:37:13;;;;;;;13.48;8.00;;;15.40;99.90;;;;;;12433790;28;20049;-84
2024/03/31 12:43:26;;;;;;;18.35;8.98;;;15.40;99.90;;;;;;12439130;28;20129;-84
2024/03/31 12:49:27;;;;;;;18.63;9.25;;;15.50;99.90;;;;;;12457805;28;20419;-85
2024/03/31 12:55:27;;;;;;;15.55;9.57;;;15.40;99.90;;;;;;12438086;28;20077;-85
2024/03/31 13:01:28;;;;;;;17.55;10.43;;;15.40;99.90;;;;;;12445116;28;20080;-84
2024/03/31 13:07:30;;;;;;;19.35;9.20;;;15.40;99.90;;;;;;12419968;28;20054;-84
2024/03/31 13:13:31;;;;;;;12.75;8.48;;;15.30;99.90;;;;;;12432988;28;20120;-84
2024/03/31 13:19:32;;;;;;;13.55;8.13;;;15.30;99.90;;;;;;12442680;28;20105;-84
2024/03/31 13:25:33;;;;;;;22.88;9.10;;;15.40;99.90;;;;;;12430516;28;20058;-82
2024/03/31 13:31:34;;;;;;;19.70;8.40;;;15.30;99.90;;;;;;12443266;28;20117;-82
2024/03/31 13:37:35;;;;;;;17.23;7.72;;;15.30;99.90;;;;;;12441106;28;20049;-82
2024/03/31 13:43:35;;;;;;;15.00;7.70;;;15.20;99.90;;;;;;12439767;28;20089;-82
2024/03/31 13:49:36;;;;;;;19.45;7.97;;;15.20;99.90;;;;;;12450133;28;20058;-82
2024/03/31 13:55:37;;;;;;;14.32;6.78;;;15.30;99.90;;;;;;12457204;28;20053;-82
2024/03/31 14:01:38;;;;;;;15.80;9.02;;;15.40;99.90;;;;;;12447354;28;20477;-83
2024/03/31 14:07:39;;;;;;;16.58;7.85;;;15.50;99.90;;;;;;12449591;28;20066;-83
2024/03/31 14:13:40;;;;;;;16.40;8.00;;;16.00;99.90;;;;;;12469794;28;20026;-82
2024/03/31 14:19:41;;;;;;;20.33;8.85;;;16.30;99.90;;;;;;12489935;28;20038;-78
2024/03/31 14:25:42;;;;;;;18.13;8.10;;;16.00;99.90;;;;;;12458122;28;20081;-82
2024/03/31 14:31:43;;;;;;;19.17;7.93;;;15.70;99.90;;;;;;12458267;28;20072;-82
2024/03/31 14:37:44;;;;;;;20.65;7.90;;;15.70;99.90;;;;;;12467153;28;20049;-81
2024/03/31 14:43:45;;;;;;;17.23;7.30;;;15.50;99.90;;;;;;12463667;28;20068;-81
2024/03/31 14:49:45;;;;;;;14.75;7.85;;;15.60;99.90;;;;;;12442025;28;20073;-82
2024/03/31 14:55:46;;;;;;;19.38;8.10;;;15.70;99.90;;;;;;12479291;28;20041;-83
2024/03/31 15:01:47;;;;;;;21.30;9.32;;;15.50;99.90;;;;;;12470716;28;20061;-81
2024/03/31 15:07:48;;;;;;;19.73;8.68;;;15.50;99.90;;;;;;12452944;28;20057;-81
2024/03/31 15:13:49;;;;;;;20.15;8.50;;;15.50;99.90;;;;;;12449343;28;20042;-82
2024/03/31 15:19:50;;;;;;;17.15;9.07;;;15.60;99.90;;;;;;12453686;28;20105;-82
2024/03/31 15:25:51;;;;;;;17.65;10.30;;;15.80;99.90;;;;;;12427773;28;20161;-81
2024/03/31 15:31:52;;;;;;;21.58;10.43;;;15.60;99.90;;;;;;12454596;28;20060;-81
2024/03/31 15:37:53;;;;;;;21.13;11.25;;;15.70;99.90;;;;;;12468945;28;20064;-82
2024/03/31 15:43:54;;;;;;;23.33;11.95;;;15.80;99.90;;;;;;12452757;28;20056;-81
2024/03/31 15:49:55;;;;;;;27.45;12.05;;;16.00;99.90;;;;;;12416989;28;20429;-82
2024/03/31 15:55:56;;;;;;;19.67;12.02;;;16.00;99.90;;;;;;12422005;28;20046;-82
2024/03/31 16:01:57;;;;;;;19.88;12.35;;;15.70;99.90;;;;;;12444759;28;20057;-82
2024/03/31 16:07:58;;;;;;;23.35;12.77;;;15.30;99.90;;;;;;12435930;28;20057;-82
2024/03/31 16:13:59;;;;;;;24.95;12.32;;;15.00;99.90;;;;;;12419427;28;20129;-82
2024/03/31 16:20:00;;;;;;;23.08;13.30;;;15.00;99.90;;;;;;12409246;28;20100;-83
2024/03/31 16:26:01;;;;;;;21.80;12.05;;;14.90;99.90;;;;;;12423466;28;20124;-83
2024/03/31 16:32:02;;;;;;;25.33;11.45;;;14.70;99.90;;;;;;12438582;28;20490;-83
2024/03/31 16:38:03;;;;;;;22.70;10.77;;;14.50;99.90;;;;;;12431938;28;20046;-83
2024/03/31 16:44:04;;;;;;;25.63;13.05;;;14.40;99.90;;;;;;12421883;28;20107;-82
2024/03/31 16:50:07;;;;;;;26.05;11.55;;;14.30;99.90;;;;;;12435856;28;20115;-83
2024/03/31 16:56:08;;;;;;;30.98;14.13;;;14.20;99.90;;;;;;12445825;28;20050;-82
2024/03/31 17:02:09;;;;;;;27.42;14.57;;;14.10;99.90;;;;;;12442469;28;20433;-82
2024/03/31 17:08:10;;;;;;;27.77;14.90;;;14.00;99.90;;;;;;12426637;28;20054;-83
2024/03/31 17:14:12;;;;;;;27.30;15.30;;;13.90;99.90;;;;;;12442752;28;20038;-84
2024/03/31 17:20:13;;;;;;;23.85;15.00;;;13.90;99.90;;;;;;12424859;28;20053;-82
2024/03/31 17:26:14;;;;;;;25.25;15.70;;;13.90;99.90;;;;;;12422693;28;20054;-80
2024/03/31 17:32:15;;;;;;;29.15;16.52;;;13.80;99.90;;;;;;12439375;28;20406;-80
2024/03/31 17:38:16;;;;;;;27.70;16.75;;;13.70;99.90;;;;;;12425594;28;20053;-82
2024/03/31 17:44:17;;;;;;;27.15;15.95;;;13.70;99.90;;;;;;12427088;28;20065;-82
2024/03/31 17:50:18;;;;;;;31.48;16.25;;;13.60;99.90;;;;;;12437895;28;20058;-83
2024/03/31 17:56:20;;;;;;;28.17;15.38;;;13.50;99.90;;;;;;12424174;28;20486;-82
2024/03/31 18:02:21;;;;;;;28.13;14.65;;;13.50;99.90;;;;;;12437631;28;20574;-83
2024/03/31 18:08:22;;;;;;;25.20;14.40;;;13.40;99.90;;;;;;12438462;28;20058;-81
2024/03/31 18:14:23;;;;;;;23.02;14.18;;;13.40;99.90;;;;;;12464439;28;20041;-83
2024/03/31 18:20:23;;;;;;;25.92;13.15;;;13.40;99.90;;;;;;12430179;28;20510;-82
2024/03/31 18:26:24;;;;;;;23.17;13.05;;;13.40;99.90;;;;;;12427609;28;20060;-81
2024/03/31 18:32:25;;;;;;;23.45;12.40;;;13.40;99.90;;;;;;12446403;28;20050;-81
2024/03/31 18:38:31;;;;;;;24.65;12.43;;;13.30;99.90;;;;;;12456121;28;20057;-81
2024/03/31 18:44:32;;;;;;;26.45;11.15;;;13.40;99.90;;;;;;12472084;28;20068;-80
2024/03/31 18:50:34;;;;;;;23.50;10.95;;;13.30;99.90;;;;;;12492949;28;20068;-80
2024/03/31 18:56:35;;;;;;;20.20;11.32;;;13.30;99.90;;;;;;12474652;28;20045;-79
2024/03/31 19:02:35;;;;;;;25.73;10.57;;;13.30;99.90;;;;;;12458714;28;20050;-79
2024/03/31 19:08:38;;;;;;;21.33;10.60;;;13.30;99.90;;;;;;12495018;28;20481;-77
2024/03/31 19:14:39;;;;;;;19.75;9.35;;;13.30;99.90;;;;;;12496207;28;20056;-79
2024/03/31 19:20:41;;;;;;;26.92;9.60;;;13.20;99.90;;;;;;12454580;28;20140;-83
2024/03/31 19:26:42;;;;;;;22.98;10.65;;;13.10;99.90;;;;;;12444289;28;20061;-82
2024/03/31 19:32:43;;;;;;;23.90;11.95;;;13.10;99.90;;;;;;12433073;28;20286;-82
2024/03/31 19:38:44;;;;;;;21.25;12.52;;;13.00;99.90;;;;;;12438894;28;20068;-81
2024/03/31 19:44:47;;;;;;;24.02;13.00;;;13.00;99.90;;;;;;12418994;28;20054;-83
2024/03/31 19:50:48;;;;;;;22.98;12.43;;;12.80;99.90;;;;;;12436805;28;20050;-83
2024/03/31 19:56:49;;;;;;;23.55;13.50;;;12.90;99.90;;;;;;12421489;28;20517;-84
2024/03/31 20:02:50;;;;;;;30.95;15.18;;;13.00;99.90;;;;;;12468476;28;20050;-79
2024/03/31 20:08:51;;;;;;;34.22;16.10;;;12.90;99.90;;;;;;12468313;28;20046;-79
2024/03/31 20:14:52;;;;;;;45.70;24.33;;;12.80;99.90;;;;;;12462331;28;20498;-78
2024/03/31 20:20:54;;;;;;;51.72;26.45;;;12.90;99.90;;;;;;12466395;28;20045;-79
2024/03/31 20:26:54;;;;;;;53.53;26.85;;;12.80;99.90;;;;;;12466782;28;20050;-78
2024/03/31 20:32:55;;;;;;;49.20;25.85;;;12.90;99.90;;;;;;12438960;28;20050;-84
2024/03/31 20:38:56;;;;;;;50.88;27.08;;;12.80;99.90;;;;;;12439553;28;20050;-81
2024/03/31 20:44:57;;;;;;;44.22;22.27;;;12.80;99.90;;;;;;12507609;28;20072;-80
2024/03/31 20:51:06;;;;;;;37.95;20.38;;;12.60;99.90;;;;;;12473878;28;20050;-81
2024/03/31 20:57:07;;;;;;;34.60;17.95;;;12.60;99.90;;;;;;12458202;28;20137;-81
2024/03/31 21:03:08;;;;;;;29.40;15.20;;;12.70;99.90;;;;;;12455638;28;20058;-81
2024/03/31 21:09:09;;;;;;;23.27;13.55;;;12.60;99.90;;;;;;12431029;28;20132;-80
2024/03/31 21:15:10;;;;;;;26.30;14.82;;;12.50;99.90;;;;;;12426221;28;20128;-82
2024/03/31 21:21:14;;;;;;;39.67;17.23;;;12.50;99.90;;;;;;12414806;28;20050;-83
2024/03/31 21:27:15;;;;;;;;;;;12.50;99.90;;;;;;12437234;28;20065;-83
2024/03/31 21:33:15;;;;;;;38.45;18.58;;;12.30;99.90;;;;;;12433761;28;19935;-82
2024/03/31 21:39:16;;;;;;;41.00;20.00;;;12.10;99.90;;;;;;12433494;28;20081;-81
2024/03/31 21:45:17;;;;;;;36.47;20.70;;;11.90;99.90;;;;;;12427531;28;20228;-81
2024/03/31 21:51:19;;;;;;;40.58;19.63;;;11.80;99.90;;;;;;12445092;28;20057;-81
2024/03/31 21:57:19;;;;;;;41.40;19.92;;;11.70;99.90;;;;;;12443730;28;20046;-81
2024/03/31 22:03:20;;;;;;;53.85;27.40;;;11.60;99.90;;;;;;12433471;28;20085;-81
2024/03/31 22:09:21;;;;;;;50.53;26.40;;;11.40;99.90;;;;;;12451036;28;20608;-81
2024/03/31 22:15:22;;;;;;;45.83;23.48;;;11.30;99.90;;;;;;12446236;28;20119;-81
2024/03/31 22:21:23;;;;;;;37.03;20.20;;;11.00;99.90;;;;;;12443866;28;20050;-81
2024/03/31 22:27:24;;;;;;;30.20;16.80;;;11.00;99.90;;;;;;12437746;28;20494;-79
2024/03/31 22:33:25;;;;;;;39.20;17.08;;;11.30;99.90;;;;;;12472493;28;20038;-79
2024/03/31 22:39:26;;;;;;;41.42;16.75;;;11.70;99.90;;;;;;12492212;28;20060;-79
2024/03/31 22:45:27;;;;;;;40.13;16.10;;;11.80;99.90;;;;;;12469024;28;20051;-79
2024/03/31 22:51:28;;;;;;;37.35;16.83;;;11.90;99.90;;;;;;12445242;28;20057;-78
2024/03/31 22:57:29;;;;;;;35.78;16.85;;;12.00;99.90;;;;;;12439604;28;20050;-80
2024/03/31 23:03:30;;;;;;;42.35;16.55;;;12.10;99.90;;;;;;12415704;28;20053;-79
2024/03/31 23:09:31;;;;;;;32.40;15.88;;;11.80;99.90;;;;;;12436951;28;20057;-80
2024/03/31 23:15:32;;;;;;;37.40;16.52;;;11.90;99.90;;;;;;12433008;28;20053;-80
2024/03/31 23:21:33;;;;;;;38.22;16.30;;;11.90;99.90;;;;;;12419068;28;20058;-79
2024/03/31 23:27:34;;;;;;;40.60;16.20;;;11.90;99.90;;;;;;12421491;28;20309;-79
2024/03/31 23:33:35;;;;;;;45.05;16.67;;;12.10;99.90;;;;;;12426114;28;20046;-80
2024/03/31 23:39:36;;;;;;;43.72;17.35;;;12.30;99.90;;;;;;12438697;28;20057;-78
2024/03/31 23:45:37;;;;;;;36.33;17.17;;;12.30;99.90;;;;;;12451491;28;20093;-80
2024/03/31 23:51:37;;;;;;;32.25;15.25;;;12.20;99.90;;;;;;12441682;28;20057;-80
2024/03/31 23:57:38;;;;;;;33.13;14.85;;;12.20;99.90;;;;;;12450737;28;20057;-82
